Time;durP1;ratioP1;P1;durP2;ratioP2;P2;SDS_P1;SDS_P2;PMS_P1;PMS_P2;Temp;Humidity;BMP_temperature;BMP_pressure;BME280_temperature;BME280_humidity;BME280_pressure;Samples;Min_cycle;Max_cycle;Signal;HPM_P1;HPM_P2
2022/02/05 00:00:28;;;;;;;8.30;3.87;;;3.20;99.90;;;;;;5044135;28;20195;-65
2022/02/05 00:03:07;;;;;;;9.10;3.70;;;3.30;99.90;;;;;;5041571;28;20337;-65
2022/02/05 00:05:45;;;;;;;10.73;4.13;;;3.30;99.90;;;;;;5045470;28;20236;-65
2022/02/05 00:08:34;;;;;;;13.17;3.53;;;3.30;99.90;;;;;;5046591;28;20730;-65
2022/02/05 00:11:24;;;;;;;9.33;3.63;;;3.40;99.90;;;;;;5043416;28;20197;-65
2022/02/05 00:39:22;;;;;;;11.80;3.77;;;3.10;99.90;;;;;;5053047;28;20199;-65
2022/02/05 00:41:54;;;;;;;7.23;3.80;;;3.10;99.90;;;;;;5074389;28;20193;-65
2022/02/05 00:44:23;;;;;;;9.07;3.50;;;3.10;99.90;;;;;;5045246;28;20217;-65
2022/02/05 00:46:52;;;;;;;7.53;3.90;;;3.00;99.90;;;;;;5049320;28;20187;-65
2022/02/05 00:49:20;;;;;;;6.63;3.63;;;3.00;99.90;;;;;;5050120;28;20632;-65
2022/02/05 00:51:54;;;;;;;7.53;3.97;;;3.00;99.90;;;;;;5033030;28;20195;-65
2022/02/05 00:54:26;;;;;;;8.37;3.43;;;3.00;99.90;;;;;;5045953;28;20220;-65
2022/02/05 00:57:19;;;;;;;12.03;3.47;;;2.90;99.90;;;;;;5042026;28;20205;-65
2022/02/05 00:59:48;;;;;;;10.40;3.53;;;2.90;99.90;;;;;;5045080;28;20566;-65
2022/02/05 01:02:16;;;;;;;4.00;3.10;;;2.90;99.90;;;;;;5038717;28;20202;-65
2022/02/05 01:04:45;;;;;;;8.10;3.67;;;2.90;99.90;;;;;;5058245;28;20251;-65
2022/02/05 01:07:13;;;;;;;10.63;3.63;;;2.90;99.90;;;;;;5048614;28;20208;-65
2022/02/05 01:09:46;;;;;;;12.00;3.97;;;2.90;99.90;;;;;;5049569;28;20288;-65
2022/02/05 01:12:15;;;;;;;11.80;4.10;;;2.90;99.90;;;;;;5058649;28;20202;-65
2022/02/05 01:14:49;;;;;;;8.53;3.67;;;2.90;99.90;;;;;;5060920;28;20193;-68
2022/02/05 01:17:24;;;;;;;12.20;3.37;;;2.90;99.90;;;;;;5054808;28;20190;-65
2022/02/05 01:20:29;;;;;;;8.73;3.83;;;2.90;99.90;;;;;;5043691;28;20201;-65
2022/02/05 01:23:02;;;;;;;7.60;3.57;;;2.90;99.90;;;;;;5047451;28;20184;-65
2022/02/05 01:25:36;;;;;;;6.67;3.80;;;2.90;99.90;;;;;;5047856;28;20266;-65
2022/02/05 01:28:07;;;;;;;7.67;3.90;;;3.00;99.90;;;;;;5077965;28;20196;-65
2022/02/05 01:30:40;;;;;;;13.63;3.90;;;3.00;99.90;;;;;;5049596;28;20220;-65
2022/02/05 01:33:23;;;;;;;7.10;3.20;;;3.00;99.90;;;;;;5041304;28;20217;-65
2022/02/05 01:36:08;;;;;;;17.27;3.63;;;3.10;99.90;;;;;;5046722;28;20231;-66
2022/02/05 01:50:15;;;;;;;6.13;3.63;;;3.10;99.90;;;;;;5042028;28;20280;-64
2022/02/05 01:53:04;;;;;;;9.67;3.63;;;3.10;99.90;;;;;;5057700;28;20203;-64
2022/02/05 01:55:48;;;;;;;6.97;3.30;;;3.10;99.90;;;;;;5050958;28;20196;-64
2022/02/05 01:58:23;;;;;;;8.00;3.73;;;3.20;99.90;;;;;;5046853;28;21007;-64
2022/02/05 02:06:45;;;;;;;14.10;4.03;;;3.20;99.90;;;;;;5085752;28;20258;-64
2022/02/05 02:09:43;;;;;;;7.70;3.30;;;3.20;99.90;;;;;;5053657;28;20204;-64
2022/02/05 02:12:15;;;;;;;8.17;3.70;;;3.20;99.90;;;;;;5048201;28;20228;-64
2022/02/05 02:14:52;;;;;;;8.13;3.00;;;3.20;99.90;;;;;;5047329;28;20231;-64
2022/02/05 02:20:24;;;;;;;5.83;2.73;;;3.10;99.90;;;;;;5052060;28;20185;-64
2022/02/05 02:23:07;;;;;;;10.57;3.20;;;3.10;99.90;;;;;;5080149;28;20267;-64
2022/02/05 02:25:50;;;;;;;6.57;2.63;;;3.30;99.90;;;;;;5050283;28;20216;-64
2022/02/05 02:28:23;;;;;;;16.40;3.33;;;3.30;99.90;;;;;;5047942;28;20188;-64
2022/02/05 02:30:59;;;;;;;7.20;2.83;;;3.30;99.90;;;;;;5029388;28;20717;-64
2022/02/05 02:33:32;;;;;;;6.40;2.93;;;3.20;99.90;;;;;;5049971;28;20209;-64
2022/02/05 02:36:01;;;;;;;7.57;3.20;;;3.30;99.90;;;;;;5049574;28;20205;-64
2022/02/05 02:38:39;;;;;;;10.17;3.10;;;3.30;99.90;;;;;;5048387;28;20729;-64
2022/02/05 02:41:15;;;;;;;7.23;3.03;;;3.30;99.90;;;;;;5048742;28;20200;-64
2022/02/05 02:43:43;;;;;;;7.77;2.87;;;3.30;99.90;;;;;;5043861;28;20612;-65
2022/02/05 02:46:12;;;;;;;11.33;2.60;;;3.30;99.90;;;;;;5044144;28;20224;-64
2022/02/05 02:48:43;;;;;;;11.13;3.80;;;3.30;99.90;;;;;;5091042;28;20196;-64
2022/02/05 02:56:52;;;;;;;11.10;3.13;;;3.30;99.90;;;;;;5060511;28;20315;-64
2022/02/05 02:59:27;;;;;;;9.40;2.87;;;3.20;99.90;;;;;;5054501;28;20583;-64
2022/02/05 03:02:09;;;;;;;9.83;3.20;;;3.30;99.90;;;;;;5044049;28;20216;-65
2022/02/05 03:04:38;;;;;;;6.90;3.40;;;3.30;99.90;;;;;;5050012;28;20670;-64
2022/02/05 03:07:06;;;;;;;6.73;3.10;;;3.30;99.90;;;;;;5048787;28;20236;-64
2022/02/05 03:09:37;;;;;;;11.03;3.10;;;3.30;99.90;;;;;;5051758;28;20213;-64
2022/02/05 03:12:06;;;;;;;13.57;3.30;;;3.20;99.90;;;;;;5048244;28;20224;-64
2022/02/05 03:14:35;;;;;;;9.27;3.17;;;3.30;99.90;;;;;;5044780;28;20694;-65
2022/02/05 03:17:15;;;;;;;9.80;3.10;;;3.20;99.90;;;;;;5050247;28;20205;-64
2022/02/05 03:19:47;;;;;;;8.93;3.10;;;3.20;99.90;;;;;;5049225;28;20844;-64
2022/02/05 03:22:16;;;;;;;7.43;2.90;;;3.20;99.90;;;;;;5046779;28;20199;-64
2022/02/05 03:24:47;;;;;;;10.40;3.07;;;3.20;99.90;;;;;;5049268;28;20615;-64
2022/02/05 03:27:18;;;;;;;9.50;3.40;;;3.20;99.90;;;;;;5049805;28;20216;-64
2022/02/05 03:29:49;;;;;;;11.60;3.37;;;3.20;99.90;;;;;;5028868;28;20213;-64
2022/02/05 03:32:18;;;;;;;9.40;3.17;;;3.30;99.90;;;;;;5049643;28;20727;-64
2022/02/05 03:34:49;;;;;;;12.67;3.40;;;3.30;99.90;;;;;;5040652;28;20814;-64
2022/02/05 03:37:19;;;;;;;7.80;3.03;;;3.20;99.90;;;;;;5042308;28;20237;-64
2022/02/05 03:39:50;;;;;;;3.40;2.67;;;3.20;99.90;;;;;;5047035;28;20283;-64
2022/02/05 03:42:18;;;;;;;9.93;3.03;;;3.20;99.90;;;;;;5043953;28;20209;-64
2022/02/05 03:44:46;;;;;;;7.60;3.10;;;3.30;99.90;;;;;;5077716;28;20823;-64
2022/02/05 03:47:15;;;;;;;11.60;3.40;;;3.30;99.90;;;;;;5079453;28;20216;-64
2022/02/05 03:49:43;;;;;;;11.50;3.10;;;3.20;99.90;;;;;;5079852;28;21254;-64
2022/02/05 03:52:12;;;;;;;6.73;3.10;;;3.20;99.90;;;;;;5047253;28;20559;-64
2022/02/05 03:54:42;;;;;;;15.70;3.53;;;3.20;99.90;;;;;;5047636;28;20188;-64
2022/02/05 03:57:12;;;;;;;12.40;3.30;;;3.20;99.90;;;;;;5045903;28;20239;-64
2022/02/05 03:59:40;;;;;;;7.07;2.70;;;3.20;99.90;;;;;;5047157;28;20200;-63
2022/02/05 04:02:09;;;;;;;12.90;3.30;;;3.20;99.90;;;;;;5042145;28;20689;-64
2022/02/05 04:04:38;;;;;;;12.13;3.07;;;3.20;99.90;;;;;;5081857;28;20715;-64
2022/02/05 04:07:07;;;;;;;5.90;2.77;;;3.10;99.90;;;;;;5051159;28;20694;-64
2022/02/05 04:09:41;;;;;;;12.23;3.20;;;3.10;99.90;;;;;;5055419;28;20262;-64
2022/02/05 04:17:43;;;;;;;13.50;3.43;;;3.10;99.90;;;;;;5050546;28;20218;-64
2022/02/05 04:20:11;;;;;;;8.80;3.03;;;3.10;99.90;;;;;;5048141;28;20204;-64
2022/02/05 04:22:39;;;;;;;11.33;2.90;;;3.10;99.90;;;;;;5049073;28;20200;-64
2022/02/05 04:25:11;;;;;;;12.37;2.83;;;3.20;99.90;;;;;;5072828;28;20921;-64
2022/02/05 04:27:41;;;;;;;9.23;3.00;;;3.10;99.90;;;;;;5053647;28;20864;-64
2022/02/05 04:30:10;;;;;;;7.37;2.90;;;3.20;99.90;;;;;;5044700;28;20254;-64
2022/02/05 04:32:39;;;;;;;9.20;2.80;;;3.10;99.90;;;;;;5040554;28;20654;-64
2022/02/05 04:35:08;;;;;;;8.53;2.80;;;3.10;99.90;;;;;;5078778;28;20208;-64
2022/02/05 04:37:36;;;;;;;13.83;3.17;;;3.10;99.90;;;;;;5052438;28;20224;-64
2022/02/05 04:40:10;;;;;;;10.03;2.90;;;3.10;99.90;;;;;;5056810;28;20571;-64
2022/02/05 04:42:49;;;;;;;8.73;2.87;;;3.00;99.90;;;;;;5046645;28;20222;-64
2022/02/05 04:45:39;;;;;;;11.90;3.00;;;3.00;99.90;;;;;;5052759;28;20205;-64
2022/02/05 04:48:40;;;;;;;13.73;3.30;;;2.90;99.90;;;;;;5047415;28;20254;-64
2022/02/05 04:51:35;;;;;;;13.60;3.97;;;2.80;99.90;;;;;;5072547;28;20786;-64
2022/02/05 04:57:03;;;;;;;10.07;2.90;;;2.90;99.90;;;;;;5047113;28;20213;-64
2022/02/05 05:02:37;;;;;;;9.97;3.20;;;2.70;99.90;;;;;;5080756;28;20299;-64
2022/02/05 05:05:20;;;;;;;8.93;3.43;;;2.70;99.90;;;;;;5051105;28;20197;-64
2022/02/05 05:08:08;;;;;;;8.27;3.43;;;2.70;99.90;;;;;;5047131;28;20296;-64
2022/02/05 05:10:54;;;;;;;12.53;3.53;;;2.70;99.90;;;;;;5055231;28;20706;-65
2022/02/05 05:13:38;;;;;;;9.37;2.97;;;2.70;99.90;;;;;;5049607;28;20197;-64
2022/02/05 05:21:42;;;;;;;12.23;3.17;;;2.50;99.90;;;;;;5042921;28;20239;-64
2022/02/05 05:24:10;;;;;;;10.30;3.03;;;2.50;99.90;;;;;;5052751;28;20207;-64
2022/02/05 05:26:38;;;;;;;13.37;3.20;;;2.50;99.90;;;;;;5045709;28;20338;-64
2022/02/05 05:29:07;;;;;;;10.07;3.40;;;2.50;99.90;;;;;;5052146;28;20231;-64
2022/02/05 05:31:37;;;;;;;8.63;3.07;;;2.50;99.90;;;;;;5083539;28;20200;-64
2022/02/05 05:34:05;;;;;;;14.83;3.43;;;2.50;99.90;;;;;;5048756;28;20582;-64
2022/02/05 05:36:34;;;;;;;17.03;3.00;;;2.50;99.90;;;;;;5047332;28;20251;-64
2022/02/05 05:39:07;;;;;;;8.20;3.10;;;2.50;99.90;;;;;;5046971;28;20221;-64
2022/02/05 05:41:37;;;;;;;11.07;3.40;;;2.50;99.90;;;;;;5039291;28;20256;-64
2022/02/05 05:44:29;;;;;;;15.30;3.53;;;2.40;99.90;;;;;;5046527;28;20550;-64
2022/02/05 05:50:05;;;;;;;9.33;3.00;;;2.30;99.90;;;;;;5070747;27;1491650;-64
2022/02/05 05:52:36;;;;;;;9.17;3.80;;;2.20;99.90;;;;;;5106058;28;20270;-63
2022/02/05 05:55:05;;;;;;;12.77;4.67;;;2.20;99.90;;;;;;5106913;28;20659;-64
2022/02/05 05:57:34;;;;;;;7.73;3.60;;;2.20;99.90;;;;;;5111662;28;20733;-64
2022/02/05 06:00:03;;;;;;;11.50;4.03;;;2.20;99.90;;;;;;5087343;28;20199;-64
2022/02/05 06:02:32;;;;;;;12.47;3.70;;;2.10;99.90;;;;;;5103070;28;20210;-64
2022/02/05 06:05:03;;;;;;;12.53;3.33;;;2.10;99.90;;;;;;5083963;28;20555;-63
2022/02/05 06:07:31;;;;;;;23.97;3.63;;;2.10;99.90;;;;;;5100419;28;20202;-64
2022/02/05 06:10:00;;;;;;;10.57;3.13;;;2.10;99.90;;;;;;5089146;28;20833;-64
2022/02/05 06:12:28;;;;;;;12.13;3.80;;;2.10;99.90;;;;;;5101745;28;20627;-63
2022/02/05 06:14:58;;;;;;;8.50;3.30;;;2.10;99.90;;;;;;5102468;28;20279;-63
2022/02/05 06:17:27;;;;;;;17.00;3.80;;;2.10;99.90;;;;;;5085015;28;20197;-64
2022/02/05 06:19:56;;;;;;;11.20;3.23;;;2.10;99.90;;;;;;5085122;28;20642;-64
2022/02/05 06:22:26;;;;;;;12.27;3.83;;;2.00;99.90;;;;;;5102493;28;20195;-64
2022/02/05 06:24:54;;;;;;;14.30;3.60;;;2.00;99.90;;;;;;5100431;28;20214;-64
2022/02/05 06:27:23;;;;;;;13.00;3.73;;;2.10;99.90;;;;;;5104834;28;20650;-64
2022/02/05 06:29:52;;;;;;;15.60;4.27;;;2.10;99.90;;;;;;5103758;28;20313;-64
2022/02/05 06:32:20;;;;;;;14.93;4.00;;;2.10;99.90;;;;;;5098206;28;20206;-65
2022/02/05 06:34:49;;;;;;;12.47;3.50;;;2.10;99.90;;;;;;5104832;28;20203;-63
2022/02/05 06:37:18;;;;;;;8.27;3.90;;;2.10;99.90;;;;;;5097836;28;20203;-66
2022/02/05 06:39:48;;;;;;;7.43;3.70;;;2.20;99.90;;;;;;5109125;28;20206;-66
2022/02/05 06:42:16;;;;;;;22.60;4.00;;;2.20;99.90;;;;;;5086508;28;20190;-65
2022/02/05 06:44:45;;;;;;;15.70;4.37;;;2.20;99.90;;;;;;5081868;28;20199;-65
2022/02/05 06:47:13;;;;;;;13.37;3.80;;;2.20;99.90;;;;;;5100334;28;20221;-65
2022/02/05 06:49:42;;;;;;;9.97;3.50;;;2.10;99.90;;;;;;5086636;28;20230;-64
2022/02/05 06:52:11;;;;;;;13.67;3.73;;;2.20;99.90;;;;;;5103047;28;21193;-65
2022/02/05 06:54:39;;;;;;;20.03;4.07;;;2.20;99.90;;;;;;5093434;28;20187;-65
2022/02/05 06:57:09;;;;;;;13.60;4.30;;;2.30;99.90;;;;;;5096272;28;20199;-65
2022/02/05 06:59:38;;;;;;;11.67;4.13;;;2.20;99.90;;;;;;5090650;28;20746;-65
2022/02/05 07:02:06;;;;;;;16.07;4.10;;;2.30;99.90;;;;;;5081390;28;20244;-65
2022/02/05 07:04:35;;;;;;;13.60;3.70;;;2.20;99.90;;;;;;5088216;28;20734;-65
2022/02/05 07:07:04;;;;;;;12.57;4.00;;;2.20;99.90;;;;;;5089337;28;20239;-65
2022/02/05 07:09:33;;;;;;;11.23;3.60;;;2.20;99.90;;;;;;5087372;28;20254;-65
2022/02/05 07:12:01;;;;;;;14.77;3.53;;;2.20;99.90;;;;;;5083918;28;20199;-65
2022/02/05 07:14:36;;;;;;;16.67;4.03;;;2.20;99.90;;;;;;5086132;28;20202;-65
2022/02/05 07:17:11;;;;;;;6.43;3.40;;;2.30;99.90;;;;;;5086026;28;20218;-66
2022/02/05 07:19:52;;;;;;;13.43;3.67;;;2.30;99.90;;;;;;5089180;28;20245;-66
2022/02/05 07:22:21;;;;;;;6.70;3.33;;;2.30;99.90;;;;;;5079711;28;20208;-66
2022/02/05 07:29:12;;;;;;;10.77;3.90;;;2.30;99.90;;;;;;5079120;28;20895;-65
2022/02/05 07:30:38;;;;;;;14.90;4.13;;;2.40;99.90;;;;;;5081723;28;20273;-65
2022/02/05 07:33:06;;;;;;;11.43;4.10;;;2.30;99.90;;;;;;5081627;28;20196;-65
2022/02/05 07:35:35;;;;;;;16.90;4.03;;;2.30;99.90;;;;;;5088483;28;20207;-65
2022/02/05 07:38:04;;;;;;;12.33;4.20;;;2.30;99.90;;;;;;5083615;28;20234;-65
2022/02/05 07:40:34;;;;;;;9.73;3.50;;;2.30;99.90;;;;;;5070206;28;20249;-65
2022/02/05 07:43:04;;;;;;;13.80;4.30;;;2.30;99.90;;;;;;5084525;28;20276;-65
2022/02/05 07:45:32;;;;;;;12.67;4.40;;;2.30;99.90;;;;;;5088198;28;20676;-65
2022/02/05 07:48:02;;;;;;;14.83;4.30;;;2.40;99.90;;;;;;5086474;28;20238;-65
2022/02/05 07:50:31;;;;;;;19.47;4.10;;;2.40;99.90;;;;;;5082375;28;20227;-65
2022/02/05 07:52:59;;;;;;;12.40;3.60;;;2.50;99.90;;;;;;5082829;28;20195;-65
2022/02/05 07:55:30;;;;;;;12.07;3.93;;;2.50;99.90;;;;;;5070480;28;20202;-65
2022/02/05 07:57:58;;;;;;;11.50;3.40;;;2.50;99.90;;;;;;5078743;28;20232;-65
2022/02/05 08:00:27;;;;;;;14.43;3.90;;;2.50;99.90;;;;;;5086964;28;20233;-65
2022/02/05 08:02:57;;;;;;;5.13;3.50;;;2.60;99.90;;;;;;5088117;28;20209;-65
2022/02/05 08:05:27;;;;;;;16.53;3.97;;;2.60;99.90;;;;;;5068818;28;20217;-65
2022/02/05 08:07:58;;;;;;;13.93;4.40;;;2.70;99.90;;;;;;5074378;28;20682;-65
2022/02/05 08:10:30;;;;;;;13.40;3.80;;;2.80;99.90;;;;;;5088868;28;20281;-65
2022/02/05 08:13:00;;;;;;;12.50;3.77;;;2.90;99.90;;;;;;5088347;28;20200;-65
2022/02/05 08:15:33;;;;;;;7.87;3.70;;;3.00;99.90;;;;;;5082202;28;20191;-65
2022/02/05 08:18:02;;;;;;;14.07;3.70;;;3.00;99.90;;;;;;5069578;28;20225;-65
2022/02/05 08:20:32;;;;;;;30.47;13.63;;;3.20;99.90;;;;;;5084928;28;20198;-65
2022/02/05 08:23:00;;;;;;;16.17;6.57;;;3.40;99.90;;;;;;5061689;28;20371;-65
2022/02/05 08:25:29;;;;;;;14.63;7.33;;;3.50;99.90;;;;;;5068532;28;20195;-66
2022/02/05 08:27:57;;;;;;;13.20;5.30;;;3.50;99.90;;;;;;5086965;28;20192;-65
2022/02/05 08:30:26;;;;;;;18.80;5.83;;;3.60;99.90;;;;;;5079806;28;20688;-65
2022/02/05 08:32:54;;;;;;;32.40;17.90;;;3.70;99.90;;;;;;5063775;28;20203;-65
2022/02/05 08:35:26;;;;;;;14.30;6.47;;;3.80;99.90;;;;;;5047312;28;20184;-65
2022/02/05 08:37:58;;;;;;;21.93;11.03;;;3.90;99.90;;;;;;5084131;28;20199;-65
2022/02/05 08:40:26;;;;;;;10.57;4.27;;;3.90;99.90;;;;;;5069760;28;20191;-65
2022/02/05 08:42:55;;;;;;;11.67;4.30;;;4.00;99.90;;;;;;5078530;28;20200;-66
2022/02/05 08:45:23;;;;;;;14.50;4.07;;;4.10;99.90;;;;;;5079328;28;20287;-65
2022/02/05 08:47:54;;;;;;;11.33;3.83;;;4.20;99.90;;;;;;5067823;28;20290;-65
2022/02/05 08:50:22;;;;;;;11.57;4.47;;;4.30;99.90;;;;;;5063889;28;20208;-65
2022/02/05 08:52:54;;;;;;;11.33;3.17;;;4.40;99.90;;;;;;5068583;28;20292;-65
2022/02/05 08:55:28;;;;;;;11.13;3.47;;;4.50;99.90;;;;;;5084088;28;20199;-65
2022/02/05 08:57:59;;;;;;;12.73;3.40;;;4.60;99.90;;;;;;5090735;28;20194;-65
2022/02/05 09:00:28;;;;;;;9.93;3.40;;;4.80;99.90;;;;;;5084873;28;20270;-64
2022/02/05 09:03:00;;;;;;;18.63;3.43;;;4.90;99.90;;;;;;5085917;28;20195;-64
2022/02/05 09:05:38;;;;;;;7.73;3.03;;;5.00;99.90;;;;;;5063629;28;20219;-64
2022/02/05 09:08:18;;;;;;;7.43;3.10;;;5.00;99.90;;;;;;5070968;28;20214;-65
2022/02/05 09:10:56;;;;;;;6.80;4.03;;;5.10;99.90;;;;;;5083824;28;20276;-64
2022/02/05 09:16:16;;;;;;;9.17;3.70;;;5.10;99.90;;;;;;5079394;28;20240;-64
2022/02/05 09:18:47;;;;;;;6.20;3.73;;;5.10;99.90;;;;;;5057348;28;20196;-64
2022/02/05 09:21:16;;;;;;;9.40;3.30;;;5.20;99.90;;;;;;5068497;28;20195;-64
2022/02/05 09:23:47;;;;;;;10.70;3.10;;;5.30;99.90;;;;;;5083007;28;20196;-64
2022/02/05 09:26:17;;;;;;;8.50;3.30;;;5.30;99.90;;;;;;5089584;28;20250;-64
2022/02/05 09:28:46;;;;;;;10.27;3.13;;;5.50;99.90;;;;;;5066793;28;20204;-64
2022/02/05 09:31:30;;;;;;;14.97;6.83;;;5.50;99.90;;;;;;5073657;28;20214;-64
2022/02/05 09:33:59;;;;;;;15.03;4.07;;;5.60;99.90;;;;;;5084983;28;20428;-63
2022/02/05 09:36:28;;;;;;;8.80;3.50;;;5.70;99.90;;;;;;5081237;28;20573;-63
2022/02/05 09:38:57;;;;;;;10.23;4.63;;;5.80;99.90;;;;;;5068489;28;20195;-64
2022/02/05 09:41:27;;;;;;;5.53;2.97;;;5.90;99.90;;;;;;5079748;28;20205;-64
2022/02/05 09:43:56;;;;;;;10.37;3.57;;;6.10;99.90;;;;;;5084350;28;20205;-64
2022/02/05 09:46:25;;;;;;;7.17;3.20;;;6.20;99.90;;;;;;5068569;28;20245;-64
2022/02/05 09:48:54;;;;;;;9.73;3.03;;;6.30;99.90;;;;;;5063124;28;20285;-64
2022/02/05 09:51:26;;;;;;;10.40;2.73;;;6.60;99.90;;;;;;5065448;28;20229;-64
2022/02/05 09:53:56;;;;;;;8.27;2.80;;;6.80;99.90;;;;;;5080020;28;20231;-64
2022/02/05 09:56:30;;;;;;;11.40;2.80;;;7.00;99.90;;;;;;5083344;28;20318;-65
2022/02/05 09:59:00;;;;;;;10.07;3.20;;;7.20;99.90;;;;;;5078884;28;20206;-63
2022/02/05 10:01:31;;;;;;;8.80;3.20;;;7.20;99.90;;;;;;5094646;28;20248;-65
2022/02/05 10:04:01;;;;;;;6.33;2.47;;;7.30;99.90;;;;;;5082864;28;20187;-64
2022/02/05 10:06:39;;;;;;;5.93;2.87;;;7.50;99.90;;;;;;5061782;28;20645;-64
2022/02/05 10:09:10;;;;;;;6.07;2.60;;;7.60;99.90;;;;;;5086071;28;20199;-65
2022/02/05 10:11:50;;;;;;;12.80;3.43;;;7.70;99.90;;;;;;5085428;28;20761;-65
2022/02/05 10:14:22;;;;;;;9.20;3.00;;;7.80;99.90;;;;;;5065896;28;20191;-65
2022/02/05 10:16:52;;;;;;;5.00;3.07;;;8.00;99.90;;;;;;5068247;28;20223;-64
2022/02/05 10:19:22;;;;;;;9.30;2.90;;;8.10;99.90;;;;;;5077074;28;20201;-64
2022/02/05 10:22:02;;;;;;;9.23;2.83;;;8.20;99.90;;;;;;5077509;28;20191;-64
2022/02/05 10:24:31;;;;;;;7.83;3.00;;;8.50;99.90;;;;;;5084712;28;20248;-64
2022/02/05 10:27:00;;;;;;;7.13;3.53;;;8.70;99.90;;;;;;5082430;28;20230;-64
2022/02/05 10:29:31;;;;;;;10.27;3.10;;;8.70;99.90;;;;;;5085005;28;20199;-64
2022/02/05 10:32:08;;;;;;;10.43;4.90;;;8.70;99.90;;;;;;5080663;28;20247;-64
2022/02/05 10:34:53;;;;;;;11.27;2.93;;;8.60;99.90;;;;;;5084497;28;20247;-64
2022/02/05 10:37:29;;;;;;;5.40;2.90;;;8.50;99.90;;;;;;5085221;28;20613;-64
2022/02/05 10:40:09;;;;;;;11.17;3.20;;;8.50;99.90;;;;;;5083560;28;20244;-65
2022/02/05 10:43:03;;;;;;;7.40;2.60;;;8.60;99.90;;;;;;5080786;28;20208;-65
2022/02/05 10:45:41;;;;;;;8.27;3.30;;;8.70;99.90;;;;;;5066107;28;20288;-64
2022/02/05 10:48:15;;;;;;;12.57;3.17;;;8.90;99.90;;;;;;5085006;28;20305;-65
2022/02/05 10:50:44;;;;;;;6.50;2.93;;;8.90;99.90;;;;;;5067304;28;20219;-65
2022/02/05 10:53:21;;;;;;;6.43;3.07;;;9.00;99.90;;;;;;5084801;28;20257;-66
2022/02/05 10:56:02;;;;;;;11.83;6.07;;;9.30;99.90;;;;;;5064148;28;20230;-65
2022/02/05 10:59:00;;;;;;;12.00;2.73;;;9.40;99.90;;;;;;5087105;28;20207;-65
2022/02/05 11:07:07;;;;;;;7.23;4.00;;;9.90;99.90;;;;;;5086834;28;20211;-65
2022/02/05 11:09:37;;;;;;;6.27;3.03;;;9.90;99.90;;;;;;5089251;28;20196;-65
2022/02/05 11:15:05;;;;;;;16.40;4.43;;;9.80;99.90;;;;;;5067042;28;20234;-64
2022/02/05 11:20:22;;;;;;;7.03;2.67;;;10.00;99.90;;;;;;5082511;28;20373;-64
2022/02/05 11:22:52;;;;;;;10.43;3.37;;;10.20;99.90;;;;;;5066873;28;20234;-64
2022/02/05 11:25:22;;;;;;;7.83;3.20;;;10.30;99.90;;;;;;5084532;28;20203;-64
2022/02/05 11:27:54;;;;;;;7.03;2.60;;;10.30;99.90;;;;;;5079102;28;20216;-65
2022/02/05 11:30:39;;;;;;;6.83;2.70;;;10.40;99.90;;;;;;5079564;28;20252;-64
2022/02/05 11:33:24;;;;;;;10.43;3.83;;;10.50;99.90;;;;;;5090457;28;20545;-64
2022/02/05 11:38:42;;;;;;;9.87;3.23;;;10.40;99.90;;;;;;5077068;28;20196;-64
2022/02/05 11:41:25;;;;;;;8.83;2.93;;;10.50;99.90;;;;;;5084992;28;20219;-64
2022/02/05 11:44:14;;;;;;;10.57;4.33;;;10.50;99.90;;;;;;5063874;28;20281;-65
2022/02/05 11:47:23;;;;;;;13.47;4.33;;;10.60;99.90;;;;;;5096575;27;20378;-64
2022/02/05 11:50:23;;;;;;;9.60;2.70;;;10.70;99.90;;;;;;5084598;28;20711;-64
2022/02/05 11:53:08;;;;;;;9.00;5.07;;;10.70;99.90;;;;;;5082032;28;20636;-64
2022/02/05 11:55:44;;;;;;;9.37;3.17;;;10.60;99.90;;;;;;5086323;28;20623;-64
2022/02/05 11:58:16;;;;;;;7.97;2.77;;;10.50;99.90;;;;;;5045143;28;20183;-64
2022/02/05 12:00:55;;;;;;;5.33;2.40;;;10.50;99.90;;;;;;5082793;28;20691;-65
2022/02/05 12:03:36;;;;;;;10.47;2.60;;;10.70;99.90;;;;;;5076137;28;20278;-64
2022/02/05 12:06:08;;;;;;;7.10;2.60;;;11.00;99.90;;;;;;5086573;28;20196;-65
2022/02/05 12:08:41;;;;;;;9.60;3.43;;;10.70;99.90;;;;;;5041923;28;20719;-64
2022/02/05 12:11:34;;;;;;;12.77;2.90;;;10.70;99.90;;;;;;5080875;28;20225;-65
2022/02/05 12:14:11;;;;;;;6.20;2.30;;;10.80;99.90;;;;;;5065102;28;20196;-65
2022/02/05 12:16:39;;;;;;;11.27;3.03;;;11.10;99.90;;;;;;5080305;28;20199;-65
2022/02/05 12:19:16;;;;;;;13.53;2.87;;;11.20;99.90;;;;;;5076623;28;20195;-65
2022/02/05 12:21:53;;;;;;;3.80;2.27;;;11.30;99.90;;;;;;5090543;28;20812;-65
2022/02/05 12:24:42;;;;;;;6.40;2.30;;;11.30;99.90;;;;;;5060800;28;20195;-65
2022/02/05 12:27:30;;;;;;;5.77;2.20;;;11.00;99.90;;;;;;5082954;28;20195;-65
2022/02/05 12:30:35;;;;;;;6.47;3.50;;;10.90;99.90;;;;;;5079830;28;20675;-65
2022/02/05 12:33:05;;;;;;;5.63;3.30;;;10.90;99.90;;;;;;5078841;28;20219;-65
2022/02/05 12:35:36;;;;;;;9.27;2.90;;;11.00;99.90;;;;;;5063718;28;20203;-65
2022/02/05 12:38:07;;;;;;;5.63;2.50;;;11.20;99.90;;;;;;5081277;28;20690;-65
2022/02/05 12:40:43;;;;;;;7.83;4.13;;;11.30;99.90;;;;;;5078758;28;20215;-65
2022/02/05 12:43:13;;;;;;;8.73;4.27;;;11.40;99.90;;;;;;5082172;28;20525;-65
2022/02/05 12:45:52;;;;;;;9.47;2.77;;;11.50;99.90;;;;;;5078507;28;20291;-65
2022/02/05 12:48:23;;;;;;;13.53;3.23;;;11.40;99.90;;;;;;5081370;28;20704;-65
2022/02/05 12:50:57;;;;;;;5.87;4.40;;;11.50;99.90;;;;;;5077003;28;20203;-66
2022/02/05 12:53:31;;;;;;;14.17;8.77;;;11.50;99.90;;;;;;5081044;28;20634;-65
2022/02/05 12:56:12;;;;;;;10.63;4.13;;;11.40;99.90;;;;;;5087832;28;20700;-65
2022/02/05 12:58:55;;;;;;;7.87;2.77;;;11.30;99.90;;;;;;5071788;28;20259;-64
2022/02/05 13:01:24;;;;;;;8.00;3.17;;;10.80;99.90;;;;;;5070196;28;20649;-65
2022/02/05 13:04:08;;;;;;;13.70;4.80;;;10.30;99.90;;;;;;5085365;28;20656;-65
2022/02/05 13:06:40;;;;;;;8.27;3.20;;;10.30;99.90;;;;;;5066553;28;20230;-67
2022/02/05 13:09:20;;;;;;;8.50;4.23;;;10.50;99.90;;;;;;5067660;28;20572;-65
2022/02/05 13:11:55;;;;;;;9.13;3.00;;;10.80;99.90;;;;;;5076451;28;20219;-65
2022/02/05 13:14:23;;;;;;;9.87;3.93;;;10.50;99.90;;;;;;5083123;28;20206;-65
2022/02/05 13:16:52;;;;;;;8.60;3.20;;;10.40;99.90;;;;;;5064818;28;20220;-65
2022/02/05 13:19:29;;;;;;;12.07;5.53;;;10.40;99.90;;;;;;5053546;28;20196;-64
2022/02/05 13:25:31;;;;;;;18.30;9.40;;;10.30;99.90;;;;;;5087046;28;20186;-65
2022/02/05 13:28:04;;;;;;;27.53;10.93;;;10.00;99.90;;;;;;5076292;28;20672;-65
2022/02/05 13:33:42;;;;;;;10.30;2.93;;;9.80;99.90;;;;;;5027071;28;20601;-65
2022/02/05 13:36:15;;;;;;;9.50;2.57;;;9.90;99.90;;;;;;5077847;28;20245;-65
2022/02/05 13:39:08;;;;;;;9.33;4.70;;;9.80;99.90;;;;;;5047875;28;20195;-64
2022/02/05 13:41:43;;;;;;;11.07;2.80;;;9.90;99.90;;;;;;5082068;28;20270;-65
2022/02/05 13:44:15;;;;;;;10.17;3.17;;;9.90;99.90;;;;;;5062868;28;20199;-65
2022/02/05 13:47:00;;;;;;;9.63;4.30;;;9.70;99.90;;;;;;5072982;28;20212;-65
2022/02/05 13:49:29;;;;;;;10.20;3.40;;;9.80;99.90;;;;;;5081924;28;20227;-65
2022/02/05 13:52:07;;;;;;;16.03;4.10;;;9.80;99.90;;;;;;5079589;28;20216;-65
2022/02/05 13:54:38;;;;;;;8.57;3.30;;;9.80;99.90;;;;;;5057289;28;20223;-65
2022/02/05 13:57:10;;;;;;;10.10;3.53;;;9.70;99.90;;;;;;5084005;28;20206;-65
2022/02/05 13:59:39;;;;;;;7.43;2.93;;;9.50;99.90;;;;;;5066502;28;20198;-65
2022/02/05 14:02:14;;;;;;;8.83;2.70;;;9.60;99.90;;;;;;5082234;28;20191;-65
2022/02/05 14:04:42;;;;;;;9.60;3.87;;;9.70;99.90;;;;;;5067982;28;20199;-65
2022/02/05 14:07:11;;;;;;;11.30;2.63;;;9.60;99.90;;;;;;5079453;28;20252;-65
2022/02/05 14:09:41;;;;;;;11.73;4.67;;;9.50;99.90;;;;;;5045395;28;20191;-65
2022/02/05 14:12:18;;;;;;;7.63;2.60;;;9.60;99.90;;;;;;5082784;28;20249;-65
2022/02/05 14:15:01;;;;;;;7.70;3.43;;;9.60;99.90;;;;;;5068272;28;20202;-65
2022/02/05 14:17:30;;;;;;;12.57;3.43;;;9.50;99.90;;;;;;5080721;28;20270;-65
2022/02/05 14:20:09;;;;;;;12.47;4.20;;;9.50;99.90;;;;;;5088971;28;20196;-65
2022/02/05 14:22:40;;;;;;;9.37;3.43;;;9.50;99.90;;;;;;5079698;28;20195;-65
2022/02/05 14:25:16;;;;;;;7.33;2.60;;;9.60;99.90;;;;;;5051067;28;20214;-65
2022/02/05 14:28:13;;;;;;;10.57;3.73;;;9.50;99.90;;;;;;5087336;28;20246;-65
2022/02/05 14:30:54;;;;;;;7.23;3.00;;;9.40;99.90;;;;;;5073703;28;20841;-65
2022/02/05 14:33:33;;;;;;;6.13;3.43;;;9.50;99.90;;;;;;5079470;28;20272;-66
2022/02/05 14:36:17;;;;;;;6.13;2.77;;;9.50;99.90;;;;;;5086013;28;20617;-65
2022/02/05 14:41:39;;;;;;;11.40;2.73;;;9.40;99.90;;;;;;5082407;28;20224;-65
2022/02/05 14:44:09;;;;;;;7.20;2.77;;;9.40;99.90;;;;;;5081337;28;20305;-65
2022/02/05 14:46:40;;;;;;;15.77;2.30;;;9.30;99.90;;;;;;5079508;28;20762;-65
2022/02/05 14:49:09;;;;;;;5.03;2.57;;;9.20;99.90;;;;;;5089174;28;20751;-65
2022/02/05 14:51:38;;;;;;;6.57;2.70;;;9.20;99.90;;;;;;5081989;28;20206;-64
2022/02/05 14:54:07;;;;;;;11.03;4.40;;;9.10;99.90;;;;;;5073249;28;20208;-65
2022/02/05 14:56:35;;;;;;;8.30;4.23;;;9.10;99.90;;;;;;5070187;28;20191;-65
2022/02/05 14:59:06;;;;;;;11.07;2.70;;;9.00;99.90;;;;;;5060024;28;20696;-65
2022/02/05 15:01:35;;;;;;;7.80;3.13;;;8.90;99.90;;;;;;5086796;28;20691;-65
2022/02/05 15:04:05;;;;;;;9.17;2.90;;;8.90;99.90;;;;;;5083771;28;20203;-64